createdAt,value
2022-10-15T00:01:39.048Z,79.63
2022-10-15T00:04:07.412Z,76.78
2022-10-15T00:06:35.219Z,78.94
2022-10-15T00:09:04.250Z,80.16
2022-10-15T00:11:32.460Z,80.77
2022-10-15T00:14:00.872Z,80.13
2022-10-15T00:16:29.688Z,79.12
2022-10-15T00:18:59.140Z,76.49
2022-10-15T00:21:27.218Z,75.09
2022-10-15T00:23:55.771Z,75.00
2022-10-15T00:26:26.569Z,75.42
2022-10-15T00:28:57.075Z,76.77
2022-10-15T00:31:27.353Z,76.71
2022-10-15T00:34:00.029Z,77.60
2022-10-15T00:36:31.209Z,77.08
2022-10-15T00:38:59.469Z,78.02
2022-10-15T00:41:30.988Z,77.39
2022-10-15T00:44:23.428Z,78.20
2022-10-15T00:46:58.019Z,77.24
2022-10-15T00:49:36.148Z,79.98
2022-10-15T00:52:08.001Z,80.68
2022-10-15T00:54:39.630Z,79.76
2022-10-15T00:57:08.278Z,78.11
2022-10-15T00:59:39.408Z,77.32
2022-10-15T01:02:07.569Z,77.63
2022-10-15T01:04:36.167Z,77.68
2022-10-15T01:07:05.210Z,77.74
2022-10-15T01:09:33.148Z,78.53
2022-10-15T01:12:01.179Z,79.66
2022-10-15T01:14:53.903Z,79.28
2022-10-15T01:17:28.629Z,79.04
2022-10-15T01:20:30.769Z,77.96
2022-10-15T01:23:23.625Z,81.35
2022-10-15T01:26:25.321Z,79.02
2022-10-15T01:29:02.074Z,77.17
2022-10-15T01:31:37.369Z,77.71
2022-10-15T01:34:24.400Z,78.56
2022-10-15T01:37:01.889Z,77.15
2022-10-15T01:39:37.899Z,77.89
2022-10-15T01:42:17.141Z,79.38
2022-10-15T01:44:52.231Z,78.66
2022-10-15T01:47:28.149Z,81.74
2022-10-15T01:49:56.148Z,79.92
2022-10-15T01:52:27.779Z,79.83
2022-10-15T01:54:55.896Z,78.23
2022-10-15T01:57:26.112Z,78.31
2022-10-15T01:59:54.629Z,81.81
2022-10-15T02:02:23.799Z,81.14
2022-10-15T02:04:52.290Z,82.53
2022-10-15T02:07:51.819Z,81.67
2022-10-15T02:10:19.748Z,81.61
2022-10-15T02:12:56.490Z,79.96
2022-10-15T02:15:39.970Z,80.40
2022-10-15T02:18:35.312Z,78.07
2022-10-15T02:21:32.229Z,78.92
2022-10-15T02:24:09.501Z,81.02
2022-10-15T02:26:37.877Z,78.98
2022-10-15T02:29:08.666Z,76.68
2022-10-15T02:31:38.440Z,76.31
2022-10-15T02:34:08.579Z,76.88
2022-10-15T02:36:39.922Z,80.56
2022-10-15T02:39:12.239Z,81.76
2022-10-15T02:41:40.460Z,81.38
2022-10-15T02:44:10.438Z,79.15
2022-10-15T02:46:39.549Z,78.03
2022-10-15T02:49:07.380Z,80.86
2022-10-15T02:51:36.343Z,77.91
2022-10-15T02:54:05.331Z,76.32
2022-10-15T02:56:33.484Z,77.25
2022-10-15T02:59:02.599Z,77.29
2022-10-15T03:01:30.935Z,78.02
2022-10-15T03:03:59.125Z,76.50
2022-10-15T03:06:27.480Z,78.21
2022-10-15T03:08:55.452Z,79.50
2022-10-15T03:11:23.597Z,81.38
2022-10-15T03:13:52.740Z,80.85
2022-10-15T03:16:22.030Z,80.77
2022-10-15T03:18:50.272Z,80.68
2022-10-15T03:21:19.379Z,80.91
2022-10-15T03:23:47.581Z,78.96
2022-10-15T03:26:16.107Z,79.29
2022-10-15T03:28:44.250Z,80.36
2022-10-15T03:31:14.520Z,81.22
2022-10-15T03:33:45.374Z,80.62
2022-10-15T03:36:13.639Z,79.82
2022-10-15T03:38:42.169Z,81.31
2022-10-15T03:41:12.279Z,78.25
2022-10-15T03:43:42.782Z,75.92
2022-10-15T03:46:11.076Z,74.76
2022-10-15T03:48:39.089Z,75.27
2022-10-15T03:51:07.137Z,75.35
2022-10-15T03:53:34.949Z,74.92
2022-10-15T03:56:04.818Z,74.78
2022-10-15T03:58:33.469Z,75.92
2022-10-15T04:01:01.590Z,76.48
2022-10-15T04:03:29.741Z,78.31
2022-10-15T04:05:59.804Z,81.72
2022-10-15T04:08:31.331Z,78.79
2022-10-15T04:10:59.950Z,79.26
2022-10-15T04:13:28.857Z,77.14
2022-10-15T04:15:57.029Z,76.79
2022-10-15T04:18:24.879Z,80.72
2022-10-15T04:20:53.536Z,77.44
2022-10-15T04:23:22.032Z,77.83
2022-10-15T04:26:00.430Z,79.77
2022-10-15T04:28:29.508Z,81.09
2022-10-15T04:31:01.227Z,80.35
2022-10-15T04:33:29.928Z,77.39
2022-10-15T04:36:07.155Z,80.05
2022-10-15T04:38:39.129Z,76.83
2022-10-15T04:41:08.916Z,78.40
2022-10-15T04:43:39.719Z,78.37
2022-10-15T04:46:08.548Z,77.87
2022-10-15T04:48:42.115Z,76.33
2022-10-15T04:51:18.309Z,79.15
2022-10-15T04:53:46.379Z,77.29
2022-10-15T04:56:18.163Z,75.65
2022-10-15T04:58:47.588Z,75.85
2022-10-15T05:01:18.777Z,79.95
2022-10-15T05:03:48.300Z,80.50
2022-10-15T05:06:21.349Z,81.64
2022-10-15T05:08:50.630Z,77.61
2022-10-15T05:11:24.803Z,78.08
2022-10-15T05:13:54.968Z,77.32
2022-10-15T05:16:25.961Z,78.46
2022-10-15T05:19:06.002Z,78.05
2022-10-15T05:21:36.030Z,76.75
2022-10-15T05:24:05.639Z,79.24
2022-10-15T05:26:40.029Z,79.54
2022-10-15T05:29:07.890Z,78.61
2022-10-15T05:31:36.114Z,76.73
2022-10-15T05:34:08.485Z,76.78
2022-10-15T05:36:37.513Z,76.04
2022-10-15T05:39:10.467Z,77.29
2022-10-15T05:41:40.499Z,76.64
2022-10-15T05:44:08.880Z,82.53
2022-10-15T05:46:36.583Z,85.44
2022-10-15T05:49:04.671Z,85.99
2022-10-15T05:51:39.681Z,84.37
2022-10-15T05:54:08.974Z,81.85
2022-10-15T05:56:38.982Z,79.48
2022-10-15T05:59:06.770Z,78.66
2022-10-15T06:01:35.000Z,79.21
2022-10-15T06:04:03.235Z,78.37
2022-10-15T06:06:31.433Z,79.66
2022-10-15T06:09:00.022Z,77.74
2022-10-15T06:11:28.280Z,75.28
2022-10-15T06:13:56.119Z,72.36
2022-10-15T06:16:24.290Z,71.48
2022-10-15T06:18:53.886Z,71.76
2022-10-15T06:21:21.840Z,72.73
2022-10-15T06:23:49.644Z,71.90
2022-10-15T06:26:17.865Z,72.64
2022-10-15T06:28:48.951Z,72.64
2022-10-15T06:31:17.162Z,73.13
2022-10-15T06:33:45.060Z,74.11
2022-10-15T06:36:14.100Z,75.11
2022-10-15T06:38:44.433Z,74.37
2022-10-15T06:41:12.401Z,73.78
2022-10-15T06:43:40.414Z,72.16
2022-10-15T06:46:09.363Z,74.02
2022-10-15T06:48:37.210Z,74.96
2022-10-15T06:51:05.064Z,74.80
2022-10-15T06:53:33.883Z,76.04
2022-10-15T06:56:03.882Z,72.95
2022-10-15T06:58:34.746Z,72.80
2022-10-15T07:01:06.872Z,74.85
2022-10-15T07:03:36.450Z,72.35
2022-10-15T07:06:08.270Z,72.07
2022-10-15T07:08:36.719Z,71.98
2022-10-15T07:11:06.588Z,73.36
2022-10-15T07:13:34.432Z,74.44
2022-10-15T07:16:12.610Z,73.19
2022-10-15T07:18:41.015Z,68.23
2022-10-15T07:23:38.232Z,69.90
2022-10-15T07:26:12.587Z,71.36
2022-10-15T07:28:47.983Z,70.03
2022-10-15T07:31:16.189Z,67.09
2022-10-15T07:33:44.570Z,68.29
2022-10-15T07:36:16.838Z,66.86
2022-10-15T07:38:47.472Z,66.54
2022-10-15T07:41:15.788Z,66.38
2022-10-15T07:43:44.015Z,64.65
2022-10-15T07:46:12.614Z,63.48
2022-10-15T07:48:40.833Z,62.02
2022-10-15T07:51:08.850Z,63.26
2022-10-15T07:53:37.366Z,63.73
2022-10-15T07:56:11.282Z,62.56
2022-10-15T07:58:39.962Z,60.31
2022-10-15T08:01:10.100Z,57.53
2022-10-15T08:03:38.919Z,59.25
2022-10-15T08:06:08.290Z,58.17
2022-10-15T08:08:37.526Z,57.75
2022-10-15T08:11:11.549Z,57.22
2022-10-15T08:13:42.383Z,55.36
2022-10-15T08:16:12.713Z,55.25
2022-10-15T08:18:41.731Z,54.96
2022-10-15T08:21:11.252Z,56.56
2022-10-15T08:23:39.543Z,54.61
2022-10-15T08:26:07.659Z,54.97
2022-10-15T08:28:36.081Z,51.66
2022-10-15T08:31:06.179Z,51.49
2022-10-15T08:33:35.379Z,51.08
2022-10-15T08:36:06.109Z,49.69
2022-10-15T08:38:35.222Z,51.76
2022-10-15T08:41:05.113Z,54.15
2022-10-15T08:43:39.324Z,49.81
2022-10-15T08:46:14.554Z,46.39
2022-10-15T08:48:48.410Z,46.37
2022-10-15T08:51:22.098Z,50.79
2022-10-15T08:53:56.297Z,45.62
2022-10-15T08:56:28.370Z,44.35
2022-10-15T08:59:33.847Z,45.22
2022-10-15T09:02:16.016Z,44.04
2022-10-15T09:05:17.100Z,46.57
2022-10-15T09:08:08.510Z,45.53
2022-10-15T09:10:53.488Z,46.26
2022-10-15T09:13:27.400Z,48.07
2022-10-15T09:16:06.289Z,51.28
2022-10-15T09:18:36.391Z,47.14
2022-10-15T09:21:05.790Z,45.91
2022-10-15T09:23:34.725Z,45.68
2022-10-15T09:26:13.621Z,45.35
2022-10-15T09:28:56.838Z,45.40
2022-10-15T09:31:30.034Z,43.45
2022-10-15T09:34:08.121Z,44.37
2022-10-15T09:36:45.834Z,45.24
2022-10-15T09:39:23.589Z,44.18
2022-10-15T09:41:59.262Z,42.10
2022-10-15T09:44:34.479Z,45.40
2022-10-15T09:47:02.690Z,44.20
2022-10-15T09:49:36.145Z,43.92
2022-10-15T09:52:31.673Z,41.00
2022-10-15T09:55:11.321Z,40.79
2022-10-15T09:57:42.241Z,41.59
2022-10-15T10:00:20.301Z,40.62
2022-10-15T10:03:09.052Z,43.35
2022-10-15T10:05:48.187Z,43.91
2022-10-15T10:08:16.350Z,44.18
2022-10-15T10:10:53.740Z,45.71
2022-10-15T10:13:46.390Z,45.86
2022-10-15T10:16:17.712Z,45.63
2022-10-15T10:19:03.035Z,46.83
2022-10-15T10:21:35.241Z,43.48
2022-10-15T10:24:30.979Z,43.49
2022-10-15T10:26:59.524Z,45.53
2022-10-15T10:29:34.130Z,47.26
2022-10-15T10:32:18.974Z,46.00
2022-10-15T10:34:52.655Z,44.90
2022-10-15T10:37:29.792Z,42.91
2022-10-15T10:39:59.950Z,41.72
2022-10-15T10:42:53.508Z,41.85
2022-10-15T10:45:38.951Z,43.38
2022-10-15T10:48:58.061Z,46.20
2022-10-15T10:52:05.112Z,45.06
2022-10-15T10:54:58.539Z,47.19
2022-10-15T10:57:41.201Z,46.13
2022-10-15T11:00:17.332Z,48.12
2022-10-15T11:02:49.647Z,46.67
2022-10-15T11:05:23.029Z,46.35
2022-10-15T11:08:12.571Z,45.61
2022-10-15T11:11:00.779Z,45.06
2022-10-15T11:13:54.409Z,47.15
2022-10-15T11:16:30.610Z,45.15
2022-10-15T11:19:43.975Z,47.11
2022-10-15T11:22:34.658Z,46.44
2022-10-15T11:25:07.568Z,47.52
2022-10-15T11:27:51.840Z,48.53
2022-10-15T11:30:26.043Z,48.33
2022-10-15T11:33:09.262Z,47.85
2022-10-15T11:35:53.443Z,47.15
2022-10-15T11:38:41.061Z,48.10
2022-10-15T11:41:24.530Z,47.79
2022-10-15T11:44:01.140Z,48.57
2022-10-15T11:46:47.781Z,48.15
2022-10-15T11:49:25.174Z,48.93
2022-10-15T11:52:30.291Z,47.96
2022-10-15T11:55:04.262Z,47.30
2022-10-15T11:57:34.513Z,47.48
2022-10-15T12:00:29.299Z,48.10
2022-10-15T12:03:15.107Z,47.04
2022-10-15T12:05:51.482Z,45.69
2022-10-15T12:08:20.440Z,49.34
2022-10-15T12:11:14.839Z,47.30
2022-10-15T12:14:00.610Z,47.62
2022-10-15T12:16:40.087Z,47.59
2022-10-15T12:19:13.229Z,47.56
2022-10-15T12:21:43.720Z,47.40
2022-10-15T12:24:45.496Z,47.53
2022-10-15T12:27:25.468Z,45.06
2022-10-15T12:30:08.113Z,45.36
2022-10-15T12:32:39.490Z,46.65
2022-10-15T12:37:53.808Z,46.42
2022-10-15T12:40:22.971Z,46.30
2022-10-15T12:43:02.748Z,46.99
2022-10-15T12:45:48.437Z,47.31
2022-10-15T12:48:16.309Z,49.01
2022-10-15T12:50:47.054Z,47.02
2022-10-15T12:53:32.838Z,45.83
2022-10-15T12:56:10.391Z,44.98
2022-10-15T12:58:48.383Z,46.64
2022-10-15T13:01:20.267Z,47.26
2022-10-15T13:03:51.360Z,46.81
2022-10-15T13:06:25.601Z,46.52
2022-10-15T13:09:11.886Z,46.70
2022-10-15T13:11:47.308Z,46.23
2022-10-15T13:14:25.431Z,47.46
2022-10-15T13:16:56.189Z,45.94
2022-10-15T13:19:41.659Z,48.58
2022-10-15T13:22:27.554Z,48.18
2022-10-15T13:24:56.841Z,46.85
2022-10-15T13:27:37.897Z,45.90
2022-10-15T13:30:10.389Z,47.14
2022-10-15T13:32:49.449Z,49.20
2022-10-15T13:35:26.497Z,46.52
2022-10-15T13:37:56.475Z,47.27
2022-10-15T13:40:30.784Z,48.43
2022-10-15T13:43:00.439Z,47.09
2022-10-15T13:45:29.255Z,45.91
2022-10-15T13:47:57.461Z,46.52
2022-10-15T13:50:27.328Z,48.33
2022-10-15T13:53:21.187Z,48.81
2022-10-15T13:55:57.403Z,47.42
2022-10-15T13:58:29.281Z,47.78
2022-10-15T14:01:04.072Z,48.50
2022-10-15T14:03:34.241Z,46.88
2022-10-15T14:06:19.970Z,50.77
2022-10-15T14:08:50.568Z,48.82
2022-10-15T14:11:19.225Z,48.46
2022-10-15T14:13:49.590Z,47.66
2022-10-15T14:16:33.899Z,49.48
2022-10-15T14:19:16.399Z,51.55
2022-10-15T14:21:47.469Z,53.20
2022-10-15T14:24:17.861Z,51.15
2022-10-15T14:26:46.820Z,51.09
2022-10-15T14:29:22.822Z,53.84
2022-10-15T14:31:51.198Z,53.02
2022-10-15T14:34:34.152Z,51.64
2022-10-15T14:37:03.451Z,53.07
2022-10-15T14:39:32.712Z,51.82
2022-10-15T14:42:07.793Z,52.76
2022-10-15T14:44:47.144Z,54.02
2022-10-15T14:47:26.337Z,51.74
2022-10-15T14:49:56.489Z,49.73
2022-10-15T14:52:24.835Z,50.62
2022-10-15T14:55:23.450Z,49.66
2022-10-15T14:57:53.441Z,51.88
2022-10-15T15:00:34.560Z,53.23
2022-10-15T15:03:05.629Z,52.27
2022-10-15T15:05:54.775Z,51.91
2022-10-15T15:08:24.433Z,53.89
2022-10-15T15:10:53.660Z,52.42
2022-10-15T15:13:24.728Z,52.61
2022-10-15T15:15:54.532Z,52.49
2022-10-15T15:18:23.846Z,51.77
2022-10-15T15:20:52.006Z,51.96
2022-10-15T15:23:22.239Z,53.31
2022-10-15T15:25:51.161Z,52.73
2022-10-15T15:28:21.592Z,51.76
2022-10-15T15:31:01.941Z,54.45
2022-10-15T15:33:29.883Z,52.77
2022-10-15T15:36:02.160Z,52.84
2022-10-15T15:38:31.490Z,52.45
2022-10-15T15:41:20.280Z,53.39
2022-10-15T15:43:48.799Z,53.84
2022-10-15T15:46:17.182Z,54.02
2022-10-15T15:48:45.178Z,53.60
2022-10-15T15:51:28.068Z,54.96
2022-10-15T15:53:56.510Z,54.33
2022-10-15T15:56:24.880Z,55.79
2022-10-15T15:58:52.932Z,55.03
2022-10-15T16:01:21.377Z,55.80
2022-10-15T16:03:49.669Z,57.44
2022-10-15T16:06:17.531Z,57.82
2022-10-15T16:08:45.360Z,59.74
2022-10-15T16:11:13.434Z,61.08
2022-10-15T16:13:43.300Z,61.80
2022-10-15T16:16:11.870Z,62.33
2022-10-15T16:18:40.909Z,62.31
2022-10-15T16:21:08.630Z,62.42
2022-10-15T16:23:36.575Z,63.68
2022-10-15T16:26:05.070Z,65.16
2022-10-15T16:28:33.193Z,65.32
2022-10-15T16:31:30.346Z,64.05
2022-10-15T16:33:58.850Z,65.22
2022-10-15T16:36:26.935Z,65.83
2022-10-15T16:38:54.858Z,65.43
2022-10-15T16:41:23.002Z,65.32
2022-10-15T16:43:51.150Z,65.52
2022-10-15T16:46:20.522Z,65.02
2022-10-15T16:48:55.811Z,64.29
2022-10-15T16:51:24.401Z,64.95
2022-10-15T16:53:53.252Z,64.28
2022-10-15T16:56:24.139Z,64.22
2022-10-15T16:58:52.699Z,62.99
2022-10-15T17:01:23.596Z,64.40
2022-10-15T17:03:52.204Z,62.92
2022-10-15T17:06:26.053Z,63.62
2022-10-15T17:08:55.820Z,63.41
2022-10-15T17:11:29.541Z,63.83
2022-10-15T17:13:59.830Z,63.39
2022-10-15T17:16:30.924Z,61.99
2022-10-15T17:18:59.470Z,62.94
2022-10-15T17:21:29.306Z,62.92
2022-10-15T17:23:59.523Z,62.94
2022-10-15T17:26:33.420Z,62.75
2022-10-15T17:29:01.560Z,63.12
2022-10-15T17:31:30.320Z,63.22
2022-10-15T17:34:01.847Z,63.08
2022-10-15T17:36:31.942Z,63.42
2022-10-15T17:39:00.040Z,63.57
2022-10-15T17:41:30.151Z,63.21
2022-10-15T17:43:58.540Z,62.30
2022-10-15T17:46:28.212Z,63.15
2022-10-15T17:48:57.740Z,63.03
2022-10-15T17:51:32.402Z,62.87
2022-10-15T17:54:03.152Z,63.96
2022-10-15T17:56:34.257Z,62.71
2022-10-15T17:59:04.784Z,62.25
2022-10-15T18:04:24.122Z,64.36
2022-10-15T18:06:52.477Z,62.99
2022-10-15T18:09:25.677Z,62.85
2022-10-15T18:12:00.814Z,63.35
2022-10-15T18:14:30.613Z,63.27
2022-10-15T18:16:58.946Z,63.31
2022-10-15T18:19:27.671Z,63.50
2022-10-15T18:21:56.286Z,63.31
2022-10-15T18:24:25.016Z,63.23
2022-10-15T18:26:53.572Z,62.30
2022-10-15T18:29:22.642Z,63.44
2022-10-15T18:31:56.255Z,63.38
2022-10-15T18:34:25.694Z,62.05
2022-10-15T18:36:54.001Z,62.12
2022-10-15T18:39:23.341Z,61.94
2022-10-15T18:41:51.661Z,61.93
2022-10-15T18:44:21.698Z,61.76
2022-10-15T18:46:50.331Z,61.72
2022-10-15T18:49:19.546Z,61.76
2022-10-15T18:51:51.999Z,61.62
2022-10-15T18:54:21.150Z,61.51
2022-10-15T18:56:49.771Z,61.93
2022-10-15T18:59:21.513Z,62.11
2022-10-15T19:01:50.422Z,62.17
2022-10-15T19:04:20.056Z,61.55
2022-10-15T19:06:50.873Z,61.67
2022-10-15T19:09:22.664Z,61.48
2022-10-15T19:11:52.453Z,61.40
2022-10-15T19:14:21.839Z,61.39
2022-10-15T19:16:50.080Z,63.28
2022-10-15T19:19:20.445Z,61.61
2022-10-15T19:21:50.258Z,61.13
2022-10-15T19:24:20.129Z,61.07
2022-10-15T19:26:50.049Z,61.27
2022-10-15T19:29:18.251Z,62.90
2022-10-15T19:31:49.053Z,62.00
2022-10-15T19:34:17.574Z,62.70
2022-10-15T19:36:52.244Z,61.42
2022-10-15T19:39:24.095Z,62.94
2022-10-15T19:41:52.720Z,62.42
2022-10-15T19:44:25.789Z,62.16
2022-10-15T19:46:55.552Z,61.21
2022-10-15T19:49:24.442Z,60.88
2022-10-15T19:51:52.751Z,60.88
2022-10-15T19:54:20.695Z,61.90
2022-10-15T19:56:49.404Z,61.00
2022-10-15T19:59:17.359Z,61.14
2022-10-15T20:01:45.438Z,61.24
2022-10-15T20:04:13.744Z,60.63
2022-10-15T20:06:41.660Z,61.02
2022-10-15T20:09:09.730Z,60.37
2022-10-15T20:11:38.181Z,60.58
2022-10-15T20:14:06.292Z,60.92
2022-10-15T20:16:34.306Z,61.43
2022-10-15T20:19:03.900Z,61.06
2022-10-15T20:21:32.391Z,63.23
2022-10-15T20:24:04.433Z,66.59
2022-10-15T20:26:33.189Z,64.39
2022-10-15T20:29:01.506Z,61.18
2022-10-15T20:31:33.091Z,61.60
2022-10-15T20:34:02.768Z,62.11
2022-10-15T20:36:30.759Z,61.80
2022-10-15T20:39:00.933Z,62.26
2022-10-15T20:41:29.453Z,61.24
2022-10-15T20:43:57.776Z,62.38
2022-10-15T20:46:35.027Z,62.05
2022-10-15T20:51:41.743Z,61.98
2022-10-15T20:54:11.568Z,61.52
2022-10-15T20:56:39.987Z,60.78
2022-10-15T20:59:07.883Z,59.04
2022-10-15T21:01:36.073Z,61.00
2022-10-15T21:04:04.669Z,60.62
2022-10-15T21:06:33.329Z,60.95
2022-10-15T21:09:01.559Z,60.45
2022-10-15T21:11:29.581Z,60.57
2022-10-15T21:14:00.099Z,60.45
2022-10-15T21:16:28.709Z,60.81
2022-10-15T21:18:56.640Z,59.03
2022-10-15T21:21:24.567Z,61.02
2022-10-15T21:23:52.673Z,61.52
2022-10-15T21:26:21.179Z,60.08
2022-10-15T21:28:49.241Z,60.37
2022-10-15T21:31:18.190Z,61.24
2022-10-15T21:33:46.407Z,60.99
2022-10-15T21:36:15.681Z,60.95
2022-10-15T21:38:44.198Z,61.90
2022-10-15T21:41:12.140Z,61.48
2022-10-15T21:43:40.140Z,60.58
2022-10-15T21:46:10.910Z,61.34
2022-10-15T21:48:39.769Z,60.98
2022-10-15T21:51:13.199Z,60.75
2022-10-15T21:53:41.666Z,62.19
2022-10-15T21:56:09.998Z,61.24
2022-10-15T21:58:38.990Z,60.76
2022-10-15T22:01:14.463Z,60.52
2022-10-15T22:03:45.925Z,60.37
2022-10-15T22:06:14.515Z,59.76
2022-10-15T22:08:43.490Z,61.29
2022-10-15T22:11:14.656Z,62.27
2022-10-15T22:13:44.227Z,61.64
2022-10-15T22:16:13.227Z,62.41
2022-10-15T22:18:41.488Z,62.33
2022-10-15T22:21:16.318Z,61.75
2022-10-15T22:23:46.341Z,61.94
2022-10-15T22:26:15.218Z,62.86
2022-10-15T22:28:43.365Z,61.46
2022-10-15T22:31:13.400Z,60.60
2022-10-15T22:33:41.920Z,61.29
2022-10-15T22:36:22.058Z,59.91
2022-10-15T22:41:23.407Z,62.68
2022-10-15T22:43:51.737Z,61.96
2022-10-15T22:46:19.624Z,61.37
2022-10-15T22:48:49.582Z,61.87
2022-10-15T22:51:17.751Z,63.70
2022-10-15T22:53:45.646Z,65.54
2022-10-15T22:56:16.250Z,63.00
2022-10-15T22:58:45.161Z,60.36
2022-10-15T23:01:17.569Z,57.90
2022-10-15T23:03:48.154Z,55.72
2022-10-15T23:06:16.907Z,54.22
2022-10-15T23:08:45.798Z,53.78
2022-10-15T23:11:16.567Z,52.67
2022-10-15T23:13:45.507Z,50.17
2022-10-15T23:16:17.936Z,50.75
2022-10-15T23:18:46.887Z,50.30
2022-10-15T23:21:24.706Z,49.57
2022-10-15T23:23:52.528Z,49.67
2022-10-15T23:26:20.848Z,51.02
2022-10-15T23:28:53.783Z,51.29
2022-10-15T23:31:24.752Z,50.74
2022-10-15T23:33:53.976Z,51.10
2022-10-15T23:36:23.134Z,48.90
2022-10-15T23:38:53.522Z,48.54
2022-10-15T23:41:21.571Z,47.56
2022-10-15T23:43:49.834Z,47.40
2022-10-15T23:46:18.461Z,46.61
2022-10-15T23:48:46.883Z,46.76
2022-10-15T23:51:19.259Z,46.62
2022-10-15T23:53:47.550Z,46.66
2022-10-15T23:56:15.887Z,44.49
2022-10-15T23:58:47.118Z,46.83
